createdAt,value
2022-11-03T00:00:12.821Z,11.10
2022-11-03T00:01:15.033Z,11.20
2022-11-03T00:02:19.217Z,11.20
2022-11-03T00:03:22.098Z,11.20
2022-11-03T00:04:24.289Z,11.20
2022-11-03T00:05:45.188Z,11.20
2022-11-03T00:06:50.938Z,11.20
2022-11-03T00:07:54.052Z,11.20
2022-11-03T00:08:59.065Z,11.20
2022-11-03T00:10:04.496Z,11.20
2022-11-03T00:11:10.164Z,11.20
2022-11-03T00:12:13.212Z,11.20
2022-11-03T00:13:15.844Z,11.20
2022-11-03T00:14:19.957Z,11.20
2022-11-03T00:15:22.286Z,11.20
2022-11-03T00:16:29.284Z,11.20
2022-11-03T00:17:31.599Z,11.20
2022-11-03T00:18:34.064Z,11.10
2022-11-03T00:19:38.162Z,11.20
2022-11-03T00:20:40.129Z,11.20
2022-11-03T00:21:42.191Z,11.10
2022-11-03T00:22:44.156Z,11.10
2022-11-03T00:23:46.532Z,11.10
2022-11-03T00:24:48.506Z,11.10
2022-11-03T00:25:52.297Z,11.10
2022-11-03T00:26:56.827Z,11.10
2022-11-03T00:27:58.834Z,11.10
2022-11-03T00:29:02.904Z,11.10
2022-11-03T00:30:05.074Z,11.10
2022-11-03T00:31:13.215Z,11.10
2022-11-03T00:32:15.062Z,11.10
2022-11-03T00:33:16.889Z,11.10
2022-11-03T00:34:18.696Z,11.10
2022-11-03T00:35:22.068Z,11.10
2022-11-03T00:36:27.002Z,11.10
2022-11-03T00:37:30.177Z,11.10
2022-11-03T00:38:32.703Z,11.10
2022-11-03T00:39:34.518Z,11.00
2022-11-03T00:40:36.468Z,11.10
2022-11-03T00:41:39.218Z,11.00
2022-11-03T00:42:41.206Z,11.00
2022-11-03T00:43:43.488Z,11.00
2022-11-03T00:44:45.493Z,11.00
2022-11-03T00:45:47.509Z,11.00
2022-11-03T00:46:50.858Z,10.90
2022-11-03T00:48:14.728Z,11.00
2022-11-03T00:49:16.750Z,11.00
2022-11-03T00:50:18.547Z,10.90
2022-11-03T00:51:22.027Z,10.90
2022-11-03T00:52:23.807Z,10.90
2022-11-03T00:53:25.621Z,10.90
2022-11-03T00:54:27.889Z,10.90
2022-11-03T00:55:29.648Z,10.90
2022-11-03T00:56:34.483Z,10.90
2022-11-03T00:57:36.231Z,10.90
2022-11-03T00:58:38.321Z,10.90
2022-11-03T00:59:40.139Z,10.90
2022-11-03T01:00:42.333Z,10.90
2022-11-03T01:01:47.716Z,10.90
2022-11-03T01:02:49.808Z,10.90
2022-11-03T01:04:13.698Z,10.90
2022-11-03T01:05:34.358Z,10.90
2022-11-03T01:06:50.986Z,10.90
2022-11-03T01:07:53.901Z,10.80
2022-11-03T01:08:56.027Z,10.80
2022-11-03T01:09:57.887Z,10.90
2022-11-03T01:11:35.857Z,10.80
2022-11-03T01:12:38.084Z,10.80
2022-11-03T01:13:39.886Z,10.80
2022-11-03T01:14:42.033Z,10.80
2022-11-03T01:15:43.864Z,10.80
2022-11-03T01:16:45.992Z,10.80
2022-11-03T01:17:47.943Z,10.80
2022-11-03T01:18:51.428Z,10.80
2022-11-03T01:19:53.965Z,10.80
2022-11-03T01:20:57.759Z,10.80
2022-11-03T01:21:59.770Z,10.80
2022-11-03T01:23:01.927Z,10.80
2022-11-03T01:24:05.847Z,10.80
2022-11-03T01:25:08.151Z,10.80
2022-11-03T01:26:12.296Z,10.80
2022-11-03T01:27:17.057Z,10.80
2022-11-03T01:28:20.416Z,10.80
2022-11-03T01:29:22.305Z,10.90
2022-11-03T01:30:24.604Z,10.80
2022-11-03T01:31:28.048Z,10.80
2022-11-03T01:32:31.576Z,10.80
2022-11-03T01:33:33.663Z,10.80
2022-11-03T01:34:38.913Z,10.80
2022-11-03T01:35:40.780Z,10.80
2022-11-03T01:36:44.473Z,10.90
2022-11-03T01:37:46.482Z,10.90
2022-11-03T01:38:49.186Z,10.90
2022-11-03T01:39:51.428Z,10.90
2022-11-03T01:40:56.075Z,10.90
2022-11-03T01:41:58.294Z,10.80
2022-11-03T01:43:22.759Z,10.80
2022-11-03T01:44:36.624Z,10.90
2022-11-03T01:45:40.249Z,10.80
2022-11-03T01:46:51.946Z,10.80
2022-11-03T01:47:53.981Z,10.80
2022-11-03T01:49:13.797Z,10.80
2022-11-03T01:50:19.178Z,10.80
2022-11-03T01:51:25.354Z,10.80
2022-11-03T01:52:42.965Z,10.80
2022-11-03T01:53:48.591Z,10.80
2022-11-03T01:54:58.815Z,10.80
2022-11-03T01:56:01.915Z,10.80
2022-11-03T01:57:08.779Z,10.80
2022-11-03T01:58:19.633Z,10.90
2022-11-03T01:59:23.918Z,10.90
2022-11-03T02:00:25.895Z,10.90
2022-11-03T02:01:28.774Z,10.90
2022-11-03T02:02:30.694Z,10.90
2022-11-03T02:03:38.171Z,10.90
2022-11-03T02:04:41.057Z,10.90
2022-11-03T02:05:45.623Z,10.90
2022-11-03T02:06:54.835Z,10.90
2022-11-03T02:07:59.407Z,10.90
2022-11-03T02:09:05.366Z,10.90
2022-11-03T02:10:08.898Z,10.90
2022-11-03T02:11:30.470Z,10.90
2022-11-03T02:12:34.865Z,10.90
2022-11-03T02:13:36.991Z,10.90
2022-11-03T02:14:50.232Z,10.90
2022-11-03T02:15:58.354Z,10.90
2022-11-03T02:17:05.772Z,11.00
2022-11-03T02:18:09.374Z,11.00
2022-11-03T02:19:23.891Z,11.00
2022-11-03T02:20:29.691Z,11.00
2022-11-03T02:21:53.554Z,11.00
2022-11-03T02:23:16.696Z,11.00
2022-11-03T02:24:43.962Z,11.00
2022-11-03T02:25:48.806Z,11.00
2022-11-03T02:26:55.487Z,10.90
2022-11-03T02:27:58.566Z,10.90
2022-11-03T02:29:00.924Z,10.90
2022-11-03T02:30:03.919Z,11.00
2022-11-03T02:32:59.089Z,11.00
2022-11-03T02:34:11.821Z,11.00
2022-11-03T02:35:28.368Z,10.90
2022-11-03T02:36:33.585Z,10.90
2022-11-03T02:37:41.214Z,11.00
2022-11-03T02:39:05.524Z,11.00
2022-11-03T02:40:13.850Z,11.00
2022-11-03T02:41:18.272Z,10.90
2022-11-03T02:42:21.435Z,11.00
2022-11-03T02:43:26.004Z,11.00
2022-11-03T02:44:29.740Z,11.00
2022-11-03T02:45:31.869Z,11.00
2022-11-03T02:46:34.889Z,11.00
2022-11-03T02:47:39.275Z,11.00
2022-11-03T02:48:41.301Z,11.00
2022-11-03T02:49:48.452Z,11.00
2022-11-03T02:50:50.813Z,11.00
2022-11-03T02:52:03.679Z,11.00
2022-11-03T02:53:06.519Z,11.00
2022-11-03T02:54:18.168Z,11.00
2022-11-03T02:55:46.134Z,11.00
2022-11-03T02:56:56.477Z,11.00
2022-11-03T02:58:18.455Z,11.00
2022-11-03T02:59:27.371Z,11.00
2022-11-03T03:00:33.415Z,11.00
2022-11-03T03:01:48.400Z,11.00
2022-11-03T03:02:50.447Z,11.00
2022-11-03T03:03:59.949Z,11.10
2022-11-03T03:05:06.635Z,11.10
2022-11-03T03:06:22.715Z,11.10
2022-11-03T03:07:32.883Z,11.10
2022-11-03T03:08:37.511Z,11.10
2022-11-03T03:10:03.012Z,11.10
2022-11-03T03:11:06.059Z,11.10
2022-11-03T03:12:10.642Z,11.10
2022-11-03T03:13:17.487Z,11.10
2022-11-03T03:14:25.605Z,11.10
2022-11-03T03:15:47.839Z,11.10
2022-11-03T03:16:49.635Z,11.10
2022-11-03T03:18:03.495Z,11.10
2022-11-03T03:19:21.149Z,11.10
2022-11-03T03:20:51.175Z,11.10
2022-11-03T03:21:57.163Z,11.10
2022-11-03T03:23:16.757Z,11.10
2022-11-03T03:24:51.559Z,11.10
2022-11-03T03:25:53.451Z,11.10
2022-11-03T03:26:59.203Z,11.10
2022-11-03T03:28:07.744Z,11.10
2022-11-03T03:29:17.637Z,11.10
2022-11-03T03:30:19.845Z,11.10
2022-11-03T03:31:24.141Z,11.10
2022-11-03T03:32:28.784Z,11.10
2022-11-03T03:33:32.989Z,11.10
2022-11-03T03:34:36.742Z,11.10
2022-11-03T03:35:42.391Z,11.10
2022-11-03T03:36:46.457Z,11.10
2022-11-03T03:37:53.522Z,11.10
2022-11-03T03:39:02.788Z,11.10
2022-11-03T03:40:11.119Z,11.10
2022-11-03T03:41:22.159Z,11.10
2022-11-03T03:42:27.506Z,11.20
2022-11-03T03:43:32.337Z,11.10
2022-11-03T03:44:36.065Z,11.10
2022-11-03T03:45:40.842Z,11.10
2022-11-03T03:46:47.703Z,11.20
2022-11-03T03:47:53.679Z,11.20
2022-11-03T03:48:59.312Z,11.10
2022-11-03T03:50:01.769Z,11.10
2022-11-03T03:51:04.969Z,11.10
2022-11-03T03:52:09.513Z,11.10
2022-11-03T03:53:13.360Z,11.10
2022-11-03T03:54:15.184Z,11.10
2022-11-03T03:55:22.011Z,11.10
2022-11-03T03:56:55.212Z,11.10
2022-11-03T03:58:00.457Z,11.00
2022-11-03T03:59:02.611Z,11.00
2022-11-03T04:00:06.466Z,11.00
2022-11-03T04:01:12.806Z,11.00
2022-11-03T04:02:15.171Z,11.00
2022-11-03T04:03:22.749Z,11.00
2022-11-03T04:04:24.573Z,10.90
2022-11-03T04:05:27.437Z,10.90
2022-11-03T04:06:29.367Z,10.90
2022-11-03T04:07:50.004Z,10.90
2022-11-03T04:08:51.932Z,10.90
2022-11-03T04:09:54.075Z,10.90
2022-11-03T04:11:15.410Z,10.90
2022-11-03T04:12:35.883Z,10.90
2022-11-03T04:13:56.425Z,10.90
2022-11-03T04:15:17.244Z,10.80
2022-11-03T04:16:38.037Z,10.80
2022-11-03T04:18:06.992Z,10.80
2022-11-03T04:19:30.754Z,10.80
2022-11-03T04:20:52.197Z,10.80
2022-11-03T04:22:12.696Z,10.80
2022-11-03T04:23:15.222Z,10.80
2022-11-03T04:24:17.125Z,10.70
2022-11-03T04:25:19.407Z,10.70
2022-11-03T04:26:25.845Z,10.70
2022-11-03T04:27:36.671Z,10.80
2022-11-03T04:28:38.587Z,10.80
2022-11-03T04:29:40.415Z,10.80
2022-11-03T04:30:42.662Z,10.80
2022-11-03T04:31:45.099Z,10.80
2022-11-03T04:32:48.965Z,10.80
2022-11-03T04:33:51.727Z,10.80
2022-11-03T04:34:54.053Z,10.90
2022-11-03T04:35:58.758Z,10.90
2022-11-03T04:37:01.764Z,10.90
2022-11-03T04:38:16.081Z,10.90
2022-11-03T04:39:20.013Z,10.90
2022-11-03T04:40:22.129Z,10.90
2022-11-03T04:41:31.969Z,10.80
2022-11-03T04:42:35.637Z,10.80
2022-11-03T04:43:38.756Z,10.90
2022-11-03T04:44:41.067Z,10.80
2022-11-03T04:45:45.829Z,10.80
2022-11-03T04:46:48.312Z,10.90
2022-11-03T04:47:53.013Z,10.90
2022-11-03T04:49:02.090Z,10.90
2022-11-03T04:50:12.111Z,10.90
2022-11-03T04:51:18.838Z,10.90
2022-11-03T04:52:22.741Z,10.90
2022-11-03T04:53:28.352Z,10.90
2022-11-03T04:54:32.847Z,10.90
2022-11-03T04:55:35.011Z,10.90
2022-11-03T04:56:37.159Z,10.90
2022-11-03T04:57:40.805Z,10.90
2022-11-03T04:58:43.159Z,10.90
2022-11-03T04:59:51.012Z,10.90
2022-11-03T05:00:57.087Z,10.90
2022-11-03T05:02:00.640Z,10.90
2022-11-03T05:03:03.313Z,10.90
2022-11-03T05:04:12.815Z,10.90
2022-11-03T05:05:23.561Z,11.00
2022-11-03T05:06:31.472Z,11.00
2022-11-03T05:07:37.081Z,11.00
2022-11-03T05:08:39.309Z,11.00
2022-11-03T05:09:43.023Z,11.00
2022-11-03T05:10:46.441Z,11.00
2022-11-03T05:11:50.305Z,11.00
2022-11-03T05:12:56.407Z,11.00
2022-11-03T05:14:02.402Z,11.00
2022-11-03T05:15:11.350Z,11.00
2022-11-03T05:16:14.089Z,11.00
2022-11-03T05:17:25.233Z,11.00
2022-11-03T05:18:32.143Z,11.00
2022-11-03T05:19:39.427Z,10.90
2022-11-03T05:20:48.264Z,10.90
2022-11-03T05:21:53.090Z,11.00
2022-11-03T05:22:54.888Z,10.90
2022-11-03T05:24:02.451Z,11.00
2022-11-03T05:25:37.423Z,11.00
2022-11-03T05:26:39.430Z,10.90
2022-11-03T05:27:41.616Z,10.90
2022-11-03T05:28:48.709Z,10.90
2022-11-03T05:29:55.187Z,10.90
2022-11-03T05:31:00.193Z,10.90
2022-11-03T05:32:04.099Z,10.90
2022-11-03T05:33:21.459Z,10.90
2022-11-03T05:34:26.401Z,11.00
2022-11-03T05:35:28.670Z,11.00
2022-11-03T05:36:33.328Z,10.90
2022-11-03T05:37:36.078Z,10.90
2022-11-03T05:38:38.104Z,10.90
2022-11-03T05:39:46.333Z,10.90
2022-11-03T05:40:52.163Z,10.90
2022-11-03T05:41:54.649Z,10.90
2022-11-03T05:43:01.599Z,10.90
2022-11-03T05:44:21.943Z,10.90
2022-11-03T05:45:30.995Z,10.90
2022-11-03T05:46:35.746Z,10.90
2022-11-03T05:47:41.518Z,10.90
2022-11-03T05:48:46.422Z,10.90
2022-11-03T05:49:50.904Z,10.90
2022-11-03T05:50:53.098Z,10.90
2022-11-03T05:51:56.819Z,10.90
2022-11-03T05:53:05.122Z,10.90
2022-11-03T05:54:19.841Z,10.90
2022-11-03T05:55:33.251Z,11.00
2022-11-03T05:56:36.758Z,11.00
2022-11-03T05:57:43.399Z,10.90
2022-11-03T05:58:47.987Z,11.00
2022-11-03T05:59:52.868Z,11.00
2022-11-03T06:00:57.813Z,11.00
2022-11-03T06:02:01.386Z,11.00
2022-11-03T06:03:04.984Z,11.00
2022-11-03T06:04:28.896Z,11.00
2022-11-03T06:05:33.806Z,11.00
2022-11-03T06:06:39.568Z,11.00
2022-11-03T06:07:43.108Z,11.00
2022-11-03T06:08:46.901Z,11.00
2022-11-03T06:09:48.879Z,11.00
2022-11-03T06:10:54.194Z,11.00
2022-11-03T06:11:58.841Z,11.00
2022-11-03T06:13:05.288Z,11.00
2022-11-03T06:14:28.216Z,11.00
2022-11-03T06:15:34.424Z,11.00
2022-11-03T06:16:41.597Z,10.90
2022-11-03T06:17:43.766Z,10.90
2022-11-03T06:18:45.647Z,10.90
2022-11-03T06:19:51.686Z,11.00
2022-11-03T06:21:05.362Z,11.00
2022-11-03T06:22:19.975Z,11.00
2022-11-03T06:23:23.092Z,10.90
2022-11-03T06:24:31.081Z,11.00
2022-11-03T06:25:36.700Z,11.00
2022-11-03T06:26:39.091Z,10.90
2022-11-03T06:27:41.076Z,11.00
2022-11-03T06:28:56.992Z,11.00
2022-11-03T06:30:23.399Z,10.90
2022-11-03T06:31:33.343Z,11.00
2022-11-03T06:32:44.192Z,10.90
2022-11-03T06:33:49.550Z,10.90
2022-11-03T06:35:08.700Z,10.90
2022-11-03T06:36:33.176Z,10.90
2022-11-03T06:37:54.809Z,10.90
2022-11-03T06:39:05.357Z,10.90
2022-11-03T06:40:17.226Z,11.00
2022-11-03T06:41:28.384Z,10.90
2022-11-03T06:42:36.377Z,10.90
2022-11-03T06:43:42.742Z,11.00
2022-11-03T06:44:51.900Z,11.00
2022-11-03T06:46:08.562Z,11.00
2022-11-03T06:47:39.697Z,11.00
2022-11-03T06:48:46.024Z,11.10
2022-11-03T06:49:50.366Z,11.00
2022-11-03T06:50:53.864Z,11.00
2022-11-03T06:52:02.321Z,11.10
2022-11-03T06:53:05.044Z,11.10
2022-11-03T06:54:11.774Z,11.10
2022-11-03T06:55:40.286Z,11.10
2022-11-03T06:56:42.259Z,11.20
2022-11-03T06:57:47.280Z,11.20
2022-11-03T06:58:52.021Z,11.20
2022-11-03T07:00:13.221Z,11.30
2022-11-03T07:01:33.728Z,11.30
2022-11-03T07:03:01.243Z,11.30
2022-11-03T07:04:17.010Z,11.30
2022-11-03T07:05:22.613Z,11.20
2022-11-03T07:06:28.620Z,11.20
2022-11-03T07:07:31.028Z,11.20
2022-11-03T07:08:39.401Z,11.20
2022-11-03T07:09:41.200Z,11.20
2022-11-03T07:10:43.282Z,11.20
2022-11-03T07:11:50.011Z,11.20
2022-11-03T07:12:52.236Z,11.30
2022-11-03T07:13:58.059Z,11.30
2022-11-03T07:15:00.018Z,11.30
2022-11-03T07:16:02.322Z,11.30
2022-11-03T07:17:07.372Z,11.30
2022-11-03T07:18:29.050Z,11.30
2022-11-03T07:19:37.483Z,11.30
2022-11-03T07:20:40.200Z,11.30
2022-11-03T07:21:50.174Z,11.40
2022-11-03T07:22:53.701Z,11.40
2022-11-03T07:23:56.813Z,11.40
2022-11-03T07:25:03.599Z,11.40
2022-11-03T07:26:08.860Z,11.50
2022-11-03T07:27:31.270Z,11.60
2022-11-03T07:28:36.825Z,11.60
2022-11-03T07:29:38.767Z,11.50
2022-11-03T07:30:40.971Z,11.60
2022-11-03T07:31:42.775Z,11.60
2022-11-03T07:32:44.613Z,11.60
2022-11-03T07:33:46.809Z,11.60
2022-11-03T07:34:52.432Z,11.60
2022-11-03T07:37:22.885Z,11.70
2022-11-03T07:38:26.298Z,11.60
2022-11-03T07:39:38.316Z,11.60
2022-11-03T07:40:40.949Z,11.60
2022-11-03T07:41:43.392Z,11.60
2022-11-03T07:42:45.406Z,11.60
2022-11-03T07:43:55.088Z,11.60
2022-11-03T07:44:56.977Z,11.60
2022-11-03T07:46:02.534Z,11.60
2022-11-03T07:47:10.315Z,11.60
2022-11-03T07:48:23.277Z,11.60
2022-11-03T07:49:27.956Z,11.60
2022-11-03T07:50:29.852Z,11.60
2022-11-03T07:51:33.718Z,11.60
2022-11-03T07:52:36.467Z,11.70
2022-11-03T07:53:43.783Z,11.60
2022-11-03T07:54:45.922Z,11.60
2022-11-03T07:55:48.488Z,11.60
2022-11-03T07:57:03.925Z,11.60
2022-11-03T07:58:36.765Z,11.60
2022-11-03T07:59:47.889Z,11.60
2022-11-03T08:01:06.847Z,11.60
2022-11-03T08:02:31.352Z,11.50
2022-11-03T08:03:51.850Z,11.50
2022-11-03T08:04:53.816Z,11.50
2022-11-03T08:05:55.754Z,11.50
2022-11-03T08:06:57.861Z,11.60
2022-11-03T08:07:59.545Z,11.60
2022-11-03T08:09:01.569Z,11.60
2022-11-03T08:10:03.869Z,11.60
2022-11-03T08:11:06.227Z,11.60
2022-11-03T08:12:08.222Z,11.60
2022-11-03T08:13:09.967Z,11.70
2022-11-03T08:14:12.550Z,11.70
2022-11-03T08:15:15.934Z,11.60
2022-11-03T08:16:18.582Z,11.70
2022-11-03T08:17:20.486Z,11.70
2022-11-03T08:18:22.210Z,11.70
2022-11-03T08:19:23.931Z,11.70
2022-11-03T08:20:25.741Z,11.70
2022-11-03T08:21:27.674Z,11.70
2022-11-03T08:22:34.828Z,11.70
2022-11-03T08:23:37.025Z,11.70
2022-11-03T08:24:38.836Z,11.70
2022-11-03T08:25:40.589Z,11.70
2022-11-03T08:26:43.767Z,11.70
2022-11-03T08:27:45.507Z,11.70
2022-11-03T08:28:47.470Z,11.70
2022-11-03T08:29:49.709Z,11.70
2022-11-03T08:30:51.481Z,11.60
2022-11-03T08:31:54.390Z,11.60
2022-11-03T08:32:56.266Z,11.60
2022-11-03T08:33:58.052Z,11.60
2022-11-03T08:34:59.782Z,11.60
2022-11-03T08:36:03.328Z,11.60
2022-11-03T08:37:05.080Z,11.50
2022-11-03T08:38:07.046Z,11.50
2022-11-03T08:39:08.985Z,11.50
2022-11-03T08:40:11.178Z,11.50
2022-11-03T08:41:12.940Z,11.50
2022-11-03T08:42:14.658Z,11.40
2022-11-03T08:43:16.431Z,11.40
2022-11-03T08:44:18.148Z,11.40
2022-11-03T08:45:19.887Z,11.40
2022-11-03T08:46:21.738Z,11.30
2022-11-03T08:47:23.538Z,11.30
2022-11-03T08:48:29.789Z,11.30
2022-11-03T08:49:31.510Z,11.30
2022-11-03T08:50:33.275Z,11.30
2022-11-03T08:51:36.249Z,11.30
2022-11-03T08:52:40.691Z,11.30
2022-11-03T08:53:43.261Z,11.40
2022-11-03T08:54:45.086Z,11.30
2022-11-03T08:55:46.942Z,11.40
2022-11-03T08:56:49.421Z,11.30
2022-11-03T08:57:51.254Z,11.20
2022-11-03T08:58:53.072Z,11.20
2022-11-03T08:59:56.134Z,11.20
2022-11-03T09:00:58.122Z,11.10
2022-11-03T09:02:00.079Z,11.10
2022-11-03T09:03:02.064Z,11.10
2022-11-03T09:04:04.052Z,11.10
2022-11-03T09:05:07.793Z,11.10
2022-11-03T09:06:09.966Z,11.00
2022-11-03T09:07:11.744Z,11.00
2022-11-03T09:10:57.221Z,10.90
2022-11-03T09:11:58.965Z,10.90
2022-11-03T09:13:00.777Z,10.90
2022-11-03T09:14:02.525Z,10.90
2022-11-03T09:15:06.111Z,11.00
2022-11-03T09:16:08.556Z,11.00
2022-11-03T09:17:16.616Z,11.00
2022-11-03T09:18:18.455Z,11.00
2022-11-03T09:19:20.384Z,11.00
2022-11-03T09:20:22.208Z,11.00
2022-11-03T09:21:24.167Z,11.00
2022-11-03T09:22:26.046Z,11.00
2022-11-03T09:23:27.864Z,11.00
2022-11-03T09:24:30.488Z,11.00
2022-11-03T09:25:32.244Z,11.00
2022-11-03T09:26:33.992Z,10.90
2022-11-03T09:27:36.822Z,11.00
2022-11-03T09:28:38.594Z,10.90
2022-11-03T09:30:06.469Z,10.90
2022-11-03T09:31:02.033Z,10.90
2022-11-03T09:32:18.890Z,10.90
2022-11-03T09:33:25.113Z,10.90
2022-11-03T09:34:38.771Z,10.90
2022-11-03T09:35:58.078Z,10.90
2022-11-03T09:37:01.053Z,11.00
2022-11-03T09:38:03.162Z,11.00
2022-11-03T09:39:05.010Z,11.00
2022-11-03T09:40:09.514Z,11.00
2022-11-03T09:41:26.521Z,11.00
2022-11-03T09:42:34.482Z,11.00
2022-11-03T09:43:36.813Z,11.00
2022-11-03T09:44:38.922Z,11.00
2022-11-03T09:45:40.965Z,11.00
2022-11-03T09:46:42.731Z,11.00
2022-11-03T09:47:48.797Z,11.00
2022-11-03T09:48:50.827Z,11.10
2022-11-03T09:49:52.651Z,11.10
2022-11-03T09:50:55.152Z,11.10
2022-11-03T09:51:57.012Z,11.20
2022-11-03T09:52:59.391Z,11.20
2022-11-03T09:54:04.690Z,11.30
2022-11-03T09:55:15.030Z,11.30
2022-11-03T09:56:20.946Z,11.40
2022-11-03T09:57:23.816Z,11.40
2022-11-03T09:58:26.519Z,11.40
2022-11-03T09:59:28.270Z,11.40
2022-11-03T10:00:31.381Z,11.40
2022-11-03T10:01:36.369Z,11.40
2022-11-03T10:02:39.954Z,11.40
2022-11-03T10:03:41.713Z,11.50
2022-11-03T10:04:43.815Z,11.50
2022-11-03T10:05:46.205Z,11.60
2022-11-03T10:06:47.912Z,11.60
2022-11-03T10:07:51.647Z,11.70
2022-11-03T10:08:55.062Z,11.70
2022-11-03T10:09:59.304Z,11.70
2022-11-03T10:11:02.108Z,11.80
2022-11-03T10:12:04.007Z,11.80
2022-11-03T10:13:09.624Z,11.80
2022-11-03T10:14:14.785Z,11.80
2022-11-03T10:15:18.743Z,11.80
2022-11-03T10:16:23.580Z,11.80
2022-11-03T10:17:28.517Z,11.80
2022-11-03T10:18:30.301Z,11.90
2022-11-03T10:19:32.894Z,12.00
2022-11-03T10:20:34.654Z,12.10
2022-11-03T10:21:38.084Z,12.20
2022-11-03T10:22:41.462Z,12.30
2022-11-03T10:23:44.166Z,12.50
2022-11-03T10:24:46.828Z,12.70
2022-11-03T10:25:48.662Z,12.80
2022-11-03T10:26:52.674Z,12.80
2022-11-03T10:28:14.931Z,12.90
2022-11-03T10:30:29.603Z,13.10
2022-11-03T10:31:39.260Z,13.10
2022-11-03T10:32:41.714Z,13.10
2022-11-03T10:33:56.408Z,13.20
2022-11-03T10:34:58.174Z,13.30
2022-11-03T10:36:05.841Z,13.30
2022-11-03T10:37:22.730Z,13.20
2022-11-03T10:38:32.559Z,13.20
2022-11-03T10:39:34.758Z,13.10
2022-11-03T10:40:52.532Z,13.10
2022-11-03T10:41:58.878Z,13.00
2022-11-03T10:43:04.177Z,13.00
2022-11-03T10:44:11.796Z,13.00
2022-11-03T10:45:19.794Z,12.90
2022-11-03T10:48:01.027Z,12.90
2022-11-03T10:50:23.120Z,12.60
2022-11-03T10:51:25.620Z,12.50
2022-11-03T10:52:30.137Z,12.50
2022-11-03T10:53:32.721Z,12.50
2022-11-03T10:54:35.760Z,12.50
2022-11-03T10:56:39.189Z,12.50
2022-11-03T10:57:41.387Z,12.40
2022-11-03T10:58:43.383Z,12.40
2022-11-03T10:59:50.815Z,12.40
2022-11-03T11:00:56.487Z,12.40
2022-11-03T11:02:01.127Z,12.30
2022-11-03T11:03:04.035Z,12.30
2022-11-03T11:04:06.109Z,12.20
2022-11-03T11:05:22.099Z,12.30
2022-11-03T11:06:29.827Z,12.30
2022-11-03T11:07:40.382Z,12.30
2022-11-03T11:08:42.347Z,12.30
2022-11-03T11:09:44.616Z,12.30
2022-11-03T11:10:51.006Z,12.20
2022-11-03T11:12:21.607Z,12.30
2022-11-03T11:13:27.787Z,12.40
2022-11-03T11:14:40.643Z,12.40
2022-11-03T11:15:45.500Z,12.50
2022-11-03T11:16:53.961Z,12.50
2022-11-03T11:17:55.881Z,12.50
2022-11-03T11:19:01.728Z,12.40
2022-11-03T11:20:18.948Z,12.40
2022-11-03T11:21:21.227Z,12.40
2022-11-03T11:22:25.416Z,12.40
2022-11-03T11:23:30.273Z,12.50
2022-11-03T11:24:44.146Z,12.50
2022-11-03T11:26:10.820Z,12.50
2022-11-03T11:27:36.850Z,12.50
2022-11-03T11:29:08.415Z,12.50
2022-11-03T11:30:19.164Z,12.40
2022-11-03T11:31:55.269Z,12.30
2022-11-03T11:33:12.900Z,12.30
2022-11-03T11:34:18.553Z,12.30
2022-11-03T11:35:26.346Z,12.30
2022-11-03T11:36:28.810Z,12.30
2022-11-03T11:37:32.521Z,12.30
2022-11-03T11:38:57.940Z,12.30
2022-11-03T11:40:02.311Z,12.30
2022-11-03T11:41:04.297Z,12.30
2022-11-03T11:42:12.829Z,12.30
2022-11-03T11:43:26.614Z,12.30
2022-11-03T11:44:51.570Z,12.30
2022-11-03T11:46:24.317Z,12.20
2022-11-03T11:47:28.357Z,12.20
2022-11-03T11:48:30.273Z,12.10
2022-11-03T11:49:32.071Z,12.10
2022-11-03T11:50:34.057Z,12.20
2022-11-03T11:51:38.921Z,12.20
2022-11-03T11:53:00.227Z,12.20
2022-11-03T11:54:17.530Z,12.10
2022-11-03T11:55:32.506Z,12.10
2022-11-03T11:56:41.005Z,12.20
2022-11-03T11:57:42.773Z,12.10
2022-11-03T11:58:54.600Z,12.20
2022-11-03T11:59:56.804Z,12.20
2022-11-03T12:01:04.871Z,12.20
2022-11-03T12:02:20.273Z,12.20
2022-11-03T12:03:41.440Z,12.30
2022-11-03T12:04:50.259Z,12.20
2022-11-03T12:05:52.664Z,12.20
2022-11-03T12:06:56.496Z,12.20
2022-11-03T12:07:58.822Z,12.20
2022-11-03T12:09:17.037Z,12.20
2022-11-03T12:10:28.804Z,12.20
2022-11-03T12:11:55.413Z,12.20
2022-11-03T12:12:59.973Z,12.20
2022-11-03T12:14:01.759Z,12.20
2022-11-03T12:15:03.994Z,12.20
2022-11-03T12:16:07.329Z,12.20
2022-11-03T12:17:46.952Z,12.20
2022-11-03T12:18:55.602Z,12.20
2022-11-03T12:19:58.245Z,12.10
2022-11-03T12:21:10.195Z,12.10
2022-11-03T12:22:26.766Z,12.10
2022-11-03T12:23:43.149Z,12.10
2022-11-03T12:24:50.154Z,12.10
2022-11-03T12:25:52.915Z,12.00
2022-11-03T12:26:55.805Z,12.00
2022-11-03T12:27:58.779Z,12.10
2022-11-03T12:29:00.627Z,12.10
2022-11-03T12:30:15.562Z,12.10
2022-11-03T12:31:19.457Z,12.00
2022-11-03T12:32:33.578Z,12.00
2022-11-03T12:33:39.643Z,12.00
2022-11-03T12:34:43.643Z,12.00
2022-11-03T12:35:50.835Z,11.90
2022-11-03T12:36:56.546Z,11.90
2022-11-03T12:38:05.681Z,11.90
2022-11-03T12:39:26.173Z,11.90
2022-11-03T12:40:37.703Z,11.90
2022-11-03T12:44:48.419Z,11.90
2022-11-03T12:45:59.437Z,11.80
2022-11-03T12:48:33.590Z,11.70
2022-11-03T12:49:54.550Z,11.70
2022-11-03T12:51:05.639Z,11.80
2022-11-03T12:52:15.910Z,11.70
2022-11-03T12:53:28.842Z,11.70
2022-11-03T12:54:47.350Z,11.60
2022-11-03T12:55:59.344Z,11.70
2022-11-03T12:57:53.159Z,11.70
2022-11-03T13:01:15.999Z,11.70
2022-11-03T13:02:38.245Z,11.70
2022-11-03T13:03:46.008Z,11.60
2022-11-03T13:04:50.293Z,11.70
2022-11-03T13:05:57.286Z,11.70
2022-11-03T13:07:35.151Z,11.70
2022-11-03T13:08:53.151Z,11.80
2022-11-03T13:09:55.964Z,11.80
2022-11-03T13:11:11.010Z,11.90
2022-11-03T13:12:43.538Z,11.90
2022-11-03T13:14:58.793Z,12.00
2022-11-03T13:20:19.139Z,11.80
2022-11-03T13:21:24.073Z,11.80
2022-11-03T13:22:36.273Z,11.90
2022-11-03T13:23:49.021Z,11.90
2022-11-03T13:27:10.830Z,11.90
2022-11-03T13:28:19.140Z,11.90
2022-11-03T13:29:20.875Z,11.80
2022-11-03T13:30:24.231Z,11.90
2022-11-03T13:31:26.089Z,11.80
2022-11-03T13:32:28.323Z,11.90
2022-11-03T13:33:30.220Z,11.90
2022-11-03T13:34:32.022Z,11.90
2022-11-03T13:35:33.941Z,11.90
2022-11-03T13:36:37.105Z,11.90
2022-11-03T13:37:39.052Z,12.00
2022-11-03T13:38:41.148Z,12.00
2022-11-03T13:39:46.486Z,12.00
2022-11-03T13:40:57.280Z,12.00
2022-11-03T13:42:25.390Z,12.00
2022-11-03T13:43:29.227Z,12.00
2022-11-03T13:44:33.774Z,12.00
2022-11-03T13:45:35.643Z,12.00
2022-11-03T13:46:37.475Z,12.00
2022-11-03T13:48:15.574Z,12.00
2022-11-03T13:50:30.900Z,12.00
2022-11-03T13:51:33.440Z,12.00
2022-11-03T13:52:35.429Z,11.90
2022-11-03T13:56:26.941Z,11.90
2022-11-03T14:00:17.104Z,11.90
2022-11-03T14:08:42.345Z,11.80
2022-11-03T14:09:44.298Z,11.80
2022-11-03T14:10:46.129Z,11.80
2022-11-03T14:12:06.449Z,11.90
2022-11-03T14:13:08.730Z,11.90
2022-11-03T14:14:10.794Z,11.90
2022-11-03T14:15:13.210Z,11.90
2022-11-03T14:16:15.198Z,11.90
2022-11-03T14:17:17.110Z,11.90
2022-11-03T14:18:19.307Z,11.80
2022-11-03T14:19:21.521Z,11.80
2022-11-03T14:20:23.331Z,11.80
2022-11-03T14:21:26.799Z,11.80
2022-11-03T14:22:30.390Z,11.80
2022-11-03T14:23:32.170Z,11.70
2022-11-03T14:24:34.876Z,11.70
2022-11-03T14:25:36.665Z,11.70
2022-11-03T14:26:43.098Z,11.70
2022-11-03T14:27:46.286Z,11.60
2022-11-03T14:28:48.990Z,11.60
2022-11-03T14:29:51.100Z,11.60
2022-11-03T14:30:53.492Z,11.60
2022-11-03T14:31:55.912Z,11.60
2022-11-03T14:32:59.723Z,11.50
2022-11-03T14:34:02.947Z,11.50
2022-11-03T14:35:05.936Z,11.50
2022-11-03T14:36:11.584Z,11.50
2022-11-03T14:37:35.075Z,11.50
2022-11-03T14:38:37.984Z,11.50
2022-11-03T14:39:40.320Z,11.50
2022-11-03T14:41:00.969Z,11.50
2022-11-03T14:42:04.138Z,11.50
2022-11-03T14:43:06.174Z,11.50
2022-11-03T14:44:08.456Z,11.40
2022-11-03T14:45:11.004Z,11.50
2022-11-03T14:46:13.287Z,11.50
2022-11-03T14:47:21.991Z,11.40
2022-11-03T14:48:24.021Z,11.50
2022-11-03T14:49:26.051Z,11.50
2022-11-03T14:50:28.071Z,11.50
2022-11-03T14:51:30.918Z,11.50
2022-11-03T14:52:32.750Z,11.50
2022-11-03T14:53:35.968Z,11.50
2022-11-03T14:54:38.046Z,11.40
2022-11-03T14:55:39.966Z,11.40
2022-11-03T14:56:42.167Z,11.40
2022-11-03T14:57:44.301Z,11.40
2022-11-03T14:58:46.165Z,11.40
2022-11-03T14:59:53.241Z,11.40
2022-11-03T15:00:57.654Z,11.30